Mansonville, Canada
Current Conditions -  °F | °C
As of 3:55 AM on Wednesday 26 Nov 2014 (Local Time) from KEFK Reporting Station
Overcast Overcast  
Wind Chill: 25°   Ceiling: 3800
Heat Index: 33°   Visibility: 10mi
Dew Point: 21°   Wind: 12mph
Humidity: 60%   Direction: 230°SW
Pressure: 30.19"   Gusts: 20mph
Location:  45.05°N, 72.39°W
Report Text: KEFK 260855Z AUTO 23010G17KT 10SM OVC038 01/M06 A3019 RMK AO2 T00071063
Loading
Personal Weather Stations






























Interactive Weather Map New forecast layout! Learn more

10-Day Weather Forecast

Advertisements
Track Severe Weather on mobile